Veale, Indiana
Current Conditions -  °F | °C
As of 3:35 AM on Thursday 27 Nov 2014 (Local Time) from KDCY Reporting Station
Overcast Overcast  
Wind Chill: 22°   Ceiling: 5500
Heat Index: 30°   Visibility: 10mi
Dew Point: 28°   Wind: 8mph
Humidity: 92%   Direction: 340°NNW
Pressure: 30.21"   Gusts: NA
Location:  38.6427°N, 87.1768°W
Report Text: KDCY 270935Z AUTO 34007KT 10SM BKN055 OVC100 M01/M02 A3021 RMK AO2 T10111022
Loading
Personal Weather Stations






























Interactive Weather Map New forecast layout! Learn more

10-Day Weather Forecast

Advertisements
Track Severe Weather on mobile